Time,TemperatureF,DewpointF,PressureIn,WindDirection,WindDirectionDegrees,WindSpeedMPH,WindSpeedGustMPH,Humidity,HourlyPrecipIn,Conditions,Clouds,dailyrainin,SoftwareType,DateUTC
2013-02-09 00:00:00,12.1,10.0,30.37,NNE,26,0.0,0.0,91,0.00,,CLR,0.01,VWS V14.00,2013-02-09 05:00:00,
2013-02-09 00:01:00,12.0,9.9,30.37,NNE,26,0.0,0.0,91,0.00,,CLR,0.00,VWS V14.00,2013-02-09 05:01:00,
2013-02-09 00:02:00,11.9,9.8,30.37,NNE,26,0.0,0.0,91,0.00,,CLR,0.00,VWS V14.00,2013-02-09 05:02:00,
2013-02-09 00:07:00,11.6,9.5,30.37,NNE,26,0.0,0.0,91,0.00,,CLR,0.00,VWS V14.00,2013-02-09 05:07:00,
2013-02-09 00:12:00,11.3,9.4,30.37,NNE,26,0.0,0.0,92,0.00,,CLR,0.00,VWS V14.00,2013-02-09 05:12:00,
2013-02-09 00:17:00,11.4,9.5,30.38,NNE,26,0.0,0.0,92,0.00,,CLR,0.00,VWS V14.00,2013-02-09 05:17:00,
2013-02-09 00:22:00,11.1,9.2,30.38,NNE,26,0.0,0.0,92,0.00,,CLR,0.00,VWS V14.00,2013-02-09 05:22:00,
2013-02-09 00:27:00,10.8,8.9,30.38,NNE,26,0.0,0.0,92,0.00,,CLR,0.00,VWS V14.00,2013-02-09 05:27:00,
2013-02-09 00:30:00,10.6,8.7,30.38,NNE,26,0.0,0.0,92,0.00,,FEW220,0.00,VWS V14.00,2013-02-09 05:30:00,
2013-02-09 00:32:00,10.5,8.6,30.38,NNE,26,0.0,0.0,92,0.00,,CLR,0.00,VWS V14.00,2013-02-09 05:32:00,
2013-02-09 00:37:00,10.2,8.3,30.38,NNE,26,0.0,0.0,92,0.00,,CLR,0.00,VWS V14.00,2013-02-09 05:37:00,
2013-02-09 00:42:00,9.9,8.1,30.38,NNE,26,0.0,0.0,92,0.00,,CLR,0.00,VWS V14.00,2013-02-09 05:42:00,
2013-02-09 00:47:00,9.4,7.6,30.38,NNE,26,0.0,0.0,92,0.00,,CLR,0.00,VWS V14.00,2013-02-09 05:47:00,
2013-02-09 00:52:00,9.1,7.2,30.38,NNE,26,0.0,0.0,92,0.00,,CLR,0.00,VWS V14.00,2013-02-09 05:52:00,
2013-02-09 00:58:00,8.7,6.9,30.38,NNE,26,0.0,0.0,92,0.00,,CLR,0.00,VWS V14.00,2013-02-09 05:58:00,
2013-02-09 01:00:00,8.6,6.8,30.39,NNE,26,0.0,0.0,92,0.00,,FEW220,0.00,VWS V14.00,2013-02-09 06:00:00,
2013-02-09 01:03:00,8.3,6.2,30.38,NNE,26,0.0,0.0,91,0.00,,CLR,0.00,VWS V14.00,2013-02-09 06:03:00,
2013-02-09 01:08:00,8.2,6.4,30.38,NNE,26,0.0,0.0,92,0.00,,CLR,0.00,VWS V14.00,2013-02-09 06:08:00,
2013-02-09 01:13:00,8.5,6.7,30.38,NNE,26,0.0,0.0,92,0.00,,CLR,0.00,VWS V14.00,2013-02-09 06:13:00,
2013-02-09 01:18:00,8.6,6.8,30.38,NNE,26,0.0,0.0,92,0.00,,CLR,0.00,VWS V14.00,2013-02-09 06:18:00,
2013-02-09 01:23:00,8.2,6.4,30.38,NNE,26,0.0,0.0,92,0.00,,CLR,0.00,VWS V14.00,2013-02-09 06:23:00,
2013-02-09 01:28:00,7.7,5.6,30.38,NNE,26,0.0,0.0,91,0.00,,CLR,0.00,VWS V14.00,2013-02-09 06:28:00,
2013-02-09 01:30:00,7.5,5.4,30.38,NNE,26,0.0,0.0,91,0.00,,FEW220,0.00,VWS V14.00,2013-02-09 06:30:00,
2013-02-09 01:33:00,7.3,5.2,30.38,NNE,26,0.0,0.0,91,0.00,,CLR,0.00,VWS V14.00,2013-02-09 06:33:00,
2013-02-09 01:38:00,7.2,5.1,30.38,NNE,26,0.0,0.0,91,0.00,,CLR,0.00,VWS V14.00,2013-02-09 06:38:00,
2013-02-09 01:43:00,6.8,4.7,30.38,NNE,26,0.0,0.0,91,0.00,,CLR,0.00,VWS V14.00,2013-02-09 06:43:00,
2013-02-09 01:48:00,6.3,4.2,30.38,NNE,26,0.0,0.0,91,0.00,,CLR,0.00,VWS V14.00,2013-02-09 06:48:00,
2013-02-09 01:54:00,6.1,4.0,30.39,NNE,26,0.0,0.0,91,0.00,,CLR,0.00,VWS V14.00,2013-02-09 06:54:00,
2013-02-09 01:59:00,6.0,3.9,30.39,NNE,26,0.0,0.0,91,0.00,,CLR,0.00,VWS V14.00,2013-02-09 06:59:00,
2013-02-09 02:00:00,6.0,3.9,30.39,NNE,26,0.0,0.0,91,0.00,,FEW220,0.00,VWS V14.00,2013-02-09 07:00:00,
2013-02-09 02:04:00,5.9,3.8,30.39,NNE,26,0.0,0.0,91,0.00,,CLR,0.00,VWS V14.00,2013-02-09 07:04:00,
2013-02-09 02:09:00,5.7,3.7,30.39,NNE,26,0.0,0.0,91,0.00,,CLR,0.00,VWS V14.00,2013-02-09 07:09:00,
2013-02-09 02:14:00,5.7,3.7,30.39,NNE,26,0.0,0.0,91,0.00,,CLR,0.00,VWS V14.00,2013-02-09 07:14:00,
2013-02-09 02:19:00,6.1,4.3,30.39,NNE,26,0.0,0.0,92,0.00,,CLR,0.00,VWS V14.00,2013-02-09 07:19:00,
2013-02-09 02:24:00,6.0,3.9,30.39,NNE,26,0.0,0.0,91,0.00,,CLR,0.00,VWS V14.00,2013-02-09 07:24:00,
2013-02-09 02:29:00,5.8,3.7,30.39,NNE,26,0.0,0.0,91,0.00,,CLR,0.00,VWS V14.00,2013-02-09 07:29:00,
2013-02-09 02:30:00,5.7,3.7,30.39,NNE,26,0.0,0.0,91,0.00,,FEW220,0.00,VWS V14.00,2013-02-09 07:30:00,
2013-02-09 02:34:00,5.7,3.7,30.39,NNE,26,0.0,0.0,91,0.00,,CLR,0.00,VWS V14.00,2013-02-09 07:34:00,
2013-02-09 02:39:00,5.5,3.5,30.39,NNE,26,0.0,0.0,91,0.00,,CLR,0.00,VWS V14.00,2013-02-09 07:39:00,
2013-02-09 02:45:00,5.5,3.5,30.39,NNE,26,0.0,0.0,91,0.00,,CLR,0.00,VWS V14.00,2013-02-09 07:45:00,
2013-02-09 02:50:00,5.3,3.2,30.39,NNE,26,1.0,1.0,91,0.00,,CLR,0.00,VWS V14.00,2013-02-09 07:50:00,
2013-02-09 02:55:00,5.2,3.2,30.39,NNE,26,0.0,1.0,91,0.00,,CLR,0.00,VWS V14.00,2013-02-09 07:55:00,
2013-02-09 03:00:00,4.9,2.8,30.39,NNE,26,0.0,1.0,91,0.00,,CLR,0.00,VWS V14.00,2013-02-09 08:00:00,
2013-02-09 03:05:00,4.6,2.6,30.39,NNE,26,0.0,0.0,91,0.00,,,0.00,VWS V14.00,2013-02-09 08:05:00,
2013-02-09 03:10:00,4.5,2.5,30.39,NNE,26,0.0,0.0,91,0.00,,,0.00,VWS V14.00,2013-02-09 08:10:00,
2013-02-09 03:15:00,4.4,2.4,30.39,NNE,26,0.0,0.0,91,0.00,,,0.00,VWS V14.00,2013-02-09 08:15:00,
2013-02-09 03:20:00,4.5,2.5,30.39,NNE,26,0.0,0.0,91,0.00,,,0.00,VWS V14.00,2013-02-09 08:20:00,
2013-02-09 03:25:00,4.7,2.7,30.39,NNE,26,0.0,0.0,91,0.00,,,0.00,VWS V14.00,2013-02-09 08:25:00,
2013-02-09 03:30:00,4.7,2.7,30.39,NNE,26,0.0,1.0,91,0.00,,,0.00,VWS V14.00,2013-02-09 08:30:00,
2013-02-09 03:35:00,4.4,2.1,30.40,NNE,26,0.0,1.0,90,0.00,,,0.00,VWS V14.00,2013-02-09 08:35:00,
2013-02-09 03:41:00,4.0,1.7,30.40,NNE,26,0.0,1.0,90,0.00,,,0.00,VWS V14.00,2013-02-09 08:41:00,
2013-02-09 03:46:00,3.7,1.4,30.39,NNE,26,0.0,1.0,90,0.00,,,0.00,VWS V14.00,2013-02-09 08:46:00,
2013-02-09 03:51:00,3.9,1.9,30.39,NNE,26,0.0,1.0,91,0.00,,,0.00,VWS V14.00,2013-02-09 08:51:00,
2013-02-09 03:56:00,3.8,1.8,30.39,NNE,26,0.0,1.0,91,0.00,,,0.00,VWS V14.00,2013-02-09 08:56:00,
2013-02-09 04:00:00,3.6,1.3,30.39,NNE,26,0.0,1.0,90,0.00,,FEW220,0.00,VWS V14.00,2013-02-09 09:00:00,
2013-02-09 04:01:00,3.6,1.3,30.39,NNE,26,0.0,0.0,90,0.00,,,0.00,VWS V14.00,2013-02-09 09:01:00,
2013-02-09 04:06:00,3.5,1.2,30.39,NNE,26,0.0,0.0,90,0.00,,,0.00,VWS V14.00,2013-02-09 09:06:00,
2013-02-09 04:11:00,3.2,0.9,30.40,NNE,26,0.0,0.0,90,0.00,,,0.00,VWS V14.00,2013-02-09 09:11:00,
2013-02-09 04:16:00,2.9,0.6,30.40,NNE,26,0.0,0.0,90,0.00,,,0.00,VWS V14.00,2013-02-09 09:16:00,
2013-02-09 04:21:00,2.5,0.2,30.40,NNE,26,0.0,0.0,90,0.00,,,0.00,VWS V14.00,2013-02-09 09:21:00,
2013-02-09 04:26:00,2.1,-0.2,30.40,NNE,26,0.0,0.0,90,0.00,,,0.00,VWS V14.00,2013-02-09 09:26:00,
2013-02-09 04:30:00,2.1,-0.2,30.41,NNE,26,0.0,0.0,90,0.00,,FEW220,0.00,VWS V14.00,2013-02-09 09:30:00,
2013-02-09 04:31:00,2.1,-0.2,30.41,NNE,26,0.0,0.0,90,0.00,,,0.00,VWS V14.00,2013-02-09 09:31:00,
2013-02-09 04:36:00,2.0,-0.2,30.41,NNE,26,0.0,0.0,90,0.00,,,0.00,VWS V14.00,2013-02-09 09:36:00,
2013-02-09 04:41:00,1.8,-0.4,30.41,NNE,26,0.0,0.0,90,0.00,,,0.00,VWS V14.00,2013-02-09 09:41:00,
2013-02-09 04:46:00,1.9,-0.3,30.41,NNE,26,0.0,0.0,90,0.00,,,0.00,VWS V14.00,2013-02-09 09:46:00,
2013-02-09 04:51:00,1.9,-0.3,30.40,NNE,26,0.0,0.0,90,0.00,,,0.00,VWS V14.00,2013-02-09 09:51:00,
2013-02-09 04:57:00,1.8,-0.4,30.41,NNE,26,0.0,0.0,90,0.00,,,0.00,VWS V14.00,2013-02-09 09:57:00,
2013-02-09 05:00:00,1.7,-0.6,30.41,NNE,26,0.0,0.0,90,0.00,,FEW220,0.00,VWS V14.00,2013-02-09 10:00:00,
2013-02-09 05:02:00,1.7,-0.6,30.41,NNE,26,0.0,0.0,90,0.00,,,0.00,VWS V14.00,2013-02-09 10:02:00,
2013-02-09 05:07:00,1.7,-0.6,30.41,NNE,26,0.0,0.0,90,0.00,,,0.00,VWS V14.00,2013-02-09 10:07:00,
2013-02-09 05:12:00,1.6,-0.6,30.41,NNE,26,0.0,0.0,90,0.00,,,0.00,VWS V14.00,2013-02-09 10:12:00,
2013-02-09 05:17:00,1.7,-0.6,30.41,NNE,26,0.0,0.0,90,0.00,,,0.00,VWS V14.00,2013-02-09 10:17:00,
2013-02-09 05:22:00,1.8,-0.4,30.41,NNE,26,0.0,0.0,90,0.00,,,0.00,VWS V14.00,2013-02-09 10:22:00,
2013-02-09 05:27:00,1.7,-0.6,30.42,NNE,26,0.0,0.0,90,0.00,,,0.00,VWS V14.00,2013-02-09 10:27:00,
2013-02-09 05:30:00,1.7,-0.6,30.42,NNE,26,0.0,0.0,90,0.00,,FEW220,0.00,VWS V14.00,2013-02-09 10:30:00,
2013-02-09 05:32:00,1.6,-0.6,30.42,NNE,26,0.0,0.0,90,0.00,,,0.00,VWS V14.00,2013-02-09 10:32:00,
2013-02-09 05:37:00,1.3,-0.9,30.42,NNE,26,0.0,0.0,90,0.00,,,0.00,VWS V14.00,2013-02-09 10:37:00,
2013-02-09 05:42:00,1.1,-1.1,30.42,NNE,26,0.0,0.0,90,0.00,,,0.00,VWS V14.00,2013-02-09 10:42:00,
2013-02-09 05:47:00,1.0,-1.5,30.42,NNE,26,0.0,0.0,89,0.00,,,0.00,VWS V14.00,2013-02-09 10:47:00,
2013-02-09 05:53:00,1.0,-1.5,30.41,NNE,26,0.0,0.0,89,0.00,,,0.00,VWS V14.00,2013-02-09 10:53:00,
2013-02-09 05:58:00,1.1,-1.4,30.41,NNE,26,0.0,0.0,89,0.00,,,0.00,VWS V14.00,2013-02-09 10:58:00,
2013-02-09 06:00:00,1.1,-1.4,30.41,NNE,26,0.0,0.0,89,0.00,,FEW220,0.00,VWS V14.00,2013-02-09 11:00:00,
2013-02-09 06:03:00,1.2,-1.0,30.41,NNE,26,0.0,0.0,90,0.00,,BKN002,0.00,VWS V14.00,2013-02-09 11:03:00,
2013-02-09 06:08:00,1.3,-0.9,30.41,NNE,26,0.0,0.0,90,0.00,,BKN002,0.00,VWS V14.00,2013-02-09 11:08:00,
2013-02-09 06:13:00,1.3,-1.2,30.41,NNE,26,0.0,0.0,89,0.00,,BKN002,0.00,VWS V14.00,2013-02-09 11:13:00,
2013-02-09 06:18:00,1.2,-1.3,30.41,NNE,26,0.0,0.0,89,0.00,,BKN002,0.00,VWS V14.00,2013-02-09 11:18:00,
2013-02-09 06:23:00,1.1,-1.1,30.41,NNE,26,0.0,0.0,90,0.00,,BKN002,0.00,VWS V14.00,2013-02-09 11:23:00,
2013-02-09 06:28:00,1.1,-1.4,30.41,NNE,26,0.0,0.0,89,0.00,,BKN002,0.00,VWS V14.00,2013-02-09 11:28:00,
2013-02-09 06:30:00,1.1,-1.4,30.41,NNE,26,0.0,0.0,89,0.00,,FEW220,0.00,VWS V14.00,2013-02-09 11:30:00,
2013-02-09 06:33:00,1.1,-1.1,30.42,NNE,26,0.0,0.0,90,0.00,,BKN002,0.00,VWS V14.00,2013-02-09 11:33:00,
2013-02-09 06:38:00,1.1,-1.1,30.42,NNE,26,0.0,0.0,90,0.00,,BKN002,0.00,VWS V14.00,2013-02-09 11:38:00,
2013-02-09 06:43:00,1.1,-1.4,30.42,NNE,26,0.0,0.0,89,0.00,,BKN002,0.00,VWS V14.00,2013-02-09 11:43:00,
2013-02-09 06:48:00,1.1,-1.4,30.42,NNE,26,0.0,0.0,89,0.00,,BKN002,0.00,VWS V14.00,2013-02-09 11:48:00,
2013-02-09 06:53:00,1.1,-1.1,30.42,NNE,26,0.0,0.0,90,0.00,,BKN002,0.00,VWS V14.00,2013-02-09 11:53:00,
2013-02-09 06:58:00,1.1,-1.4,30.42,NNE,26,0.0,0.0,89,0.00,,BKN002,0.00,VWS V14.00,2013-02-09 11:58:00,
2013-02-09 07:00:00,1.1,-1.4,30.42,NNE,26,0.0,0.0,89,0.00,,FEW220,0.00,VWS V14.00,2013-02-09 12:00:00,
2013-02-09 07:03:00,0.9,-1.6,30.42,NNE,26,0.0,0.0,89,0.00,,BKN002,0.00,VWS V14.00,2013-02-09 12:03:00,
2013-02-09 07:08:00,0.6,-1.9,30.42,NNE,26,0.0,0.0,89,0.00,,BKN002,0.00,VWS V14.00,2013-02-09 12:08:00,
2013-02-09 07:13:00,0.4,-2.1,30.42,NNE,26,0.0,0.0,89,0.00,,BKN002,0.00,VWS V14.00,2013-02-09 12:13:00,
2013-02-09 07:18:00,0.1,-2.4,30.42,NNE,26,0.0,0.0,89,0.00,,BKN002,0.00,VWS V14.00,2013-02-09 12:18:00,
2013-02-09 07:24:00,0.1,-2.4,30.42,NNE,26,0.0,0.0,89,0.00,,BKN002,0.00,VWS V14.00,2013-02-09 12:24:00,
2013-02-09 07:29:00,-0.1,-2.6,30.42,NNE,26,0.0,0.0,89,0.00,,BKN002,0.00,VWS V14.00,2013-02-09 12:29:00,
2013-02-09 07:30:00,-0.1,-2.6,30.42,NNE,26,0.0,0.0,89,0.00,,FEW220,0.00,VWS V14.00,2013-02-09 12:30:00,
2013-02-09 07:34:00,-0.3,-2.8,30.42,NNE,26,0.0,0.0,89,0.00,,,0.00,VWS V14.00,2013-02-09 12:34:00,
2013-02-09 07:39:00,-0.4,-2.9,30.42,NNE,26,0.0,0.0,89,0.00,,,0.00,VWS V14.00,2013-02-09 12:39:00,
2013-02-09 07:44:00,-0.3,-2.8,30.42,NNE,26,0.0,0.0,89,0.00,,,0.00,VWS V14.00,2013-02-09 12:44:00,
2013-02-09 07:49:00,-0.2,-2.7,30.42,NNE,26,0.0,0.0,89,0.00,,,0.00,VWS V14.00,2013-02-09 12:49:00,
2013-02-09 07:54:00,-0.3,-2.8,30.42,NNE,26,0.0,0.0,89,0.00,,,0.00,VWS V14.00,2013-02-09 12:54:00,
2013-02-09 07:59:00,-0.5,-3.0,30.42,NNE,26,0.0,0.0,89,0.00,,,0.00,VWS V14.00,2013-02-09 12:59:00,
2013-02-09 08:00:00,-0.5,-3.0,30.42,NNE,26,0.0,0.0,89,0.00,,FEW220,0.00,VWS V14.00,2013-02-09 13:00:00,
2013-02-09 08:04:00,-0.5,-3.0,30.43,NNE,26,0.0,0.0,89,0.00,,,0.00,VWS V14.00,2013-02-09 13:04:00,
2013-02-09 08:09:00,-0.5,-3.0,30.43,NNE,26,0.0,0.0,89,0.00,,,0.00,VWS V14.00,2013-02-09 13:09:00,
2013-02-09 08:14:00,-0.3,-2.8,30.43,NNE,26,0.0,0.0,89,0.00,,,0.00,VWS V14.00,2013-02-09 13:14:00,
2013-02-09 08:19:00,-0.1,-2.6,30.44,NNE,26,0.0,0.0,89,0.00,,,0.00,VWS V14.00,2013-02-09 13:19:00,
2013-02-09 08:24:00,0.1,-2.4,30.43,NNE,26,0.0,0.0,89,0.00,,,0.00,VWS V14.00,2013-02-09 13:24:00,
2013-02-09 08:29:00,0.4,-2.1,30.43,NNE,26,0.0,0.0,89,0.00,,,0.00,VWS V14.00,2013-02-09 13:29:00,
2013-02-09 08:30:00,0.4,-2.1,30.43,NNE,26,0.0,0.0,89,0.00,,FEW220,0.00,VWS V14.00,2013-02-09 13:30:00,
2013-02-09 08:34:00,0.9,-1.6,30.43,NNE,26,0.0,0.0,89,0.00,,,0.00,VWS V14.00,2013-02-09 13:34:00,
2013-02-09 08:39:00,1.5,-1.0,30.43,ENE,61,0.0,0.0,89,0.00,,,0.00,VWS V14.00,2013-02-09 13:39:00,
2013-02-09 08:45:00,2.3,2.3,30.43,ENE,61,0.0,0.0,100,0.00,,,0.00,VWS V14.00,2013-02-09 13:45:00,
2013-02-09 08:50:00,2.9,0.6,30.44,ENE,61,0.0,0.0,90,0.00,,,0.00,VWS V14.00,2013-02-09 13:50:00,
2013-02-09 08:55:00,3.9,1.6,30.44,ENE,61,0.0,0.0,90,0.00,,,0.00,VWS V14.00,2013-02-09 13:55:00,
2013-02-09 09:00:00,5.0,2.7,30.44,ENE,61,0.0,0.0,90,0.00,,,0.00,VWS V14.00,2013-02-09 14:00:00,
2013-02-09 09:05:00,5.7,3.4,30.44,ENE,61,0.0,0.0,90,0.00,,,0.00,VWS V14.00,2013-02-09 14:05:00,
2013-02-09 09:10:00,6.4,4.1,30.45,ENE,61,0.0,0.0,90,0.00,,,0.00,VWS V14.00,2013-02-09 14:10:00,
2013-02-09 09:15:00,7.5,5.4,30.44,ENE,61,0.0,0.0,91,0.00,,,0.00,VWS V14.00,2013-02-09 14:15:00,
2013-02-09 09:20:00,8.8,6.7,30.44,ENE,61,0.0,0.0,91,0.00,,,0.00,VWS V14.00,2013-02-09 14:20:00,
2013-02-09 09:25:00,9.5,7.4,30.44,ENE,61,0.0,0.0,91,0.00,,,0.00,VWS V14.00,2013-02-09 14:25:00,
2013-02-09 09:30:00,9.9,7.8,30.44,ENE,61,0.0,0.0,91,0.00,,,0.00,VWS V14.00,2013-02-09 14:30:00,
2013-02-09 09:35:00,10.6,8.5,30.44,ENE,61,0.0,0.0,91,0.00,,,0.00,VWS V14.00,2013-02-09 14:35:00,
2013-02-09 09:40:00,11.3,9.2,30.44,ENE,61,0.0,0.0,91,0.00,,,0.00,VWS V14.00,2013-02-09 14:40:00,
2013-02-09 09:45:00,12.1,10.0,30.44,ENE,61,0.0,0.0,91,0.00,,,0.00,VWS V14.00,2013-02-09 14:45:00,
2013-02-09 09:50:00,12.5,10.4,30.44,ENE,61,0.0,0.0,91,0.00,,,0.00,VWS V14.00,2013-02-09 14:50:00,
2013-02-09 09:55:00,12.8,10.7,30.44,ENE,61,0.0,0.0,91,0.00,,,0.00,VWS V14.00,2013-02-09 14:55:00,
2013-02-09 10:00:00,13.3,11.2,30.44,ENE,62,1.0,1.0,91,0.00,,,0.00,VWS V14.00,2013-02-09 15:00:00,
2013-02-09 10:06:00,13.4,11.3,30.43,ENE,71,1.0,2.0,91,0.00,,,0.00,VWS V14.00,2013-02-09 15:06:00,
2013-02-09 10:11:00,13.6,11.5,30.43,ESE,110,1.0,3.0,91,0.00,,,0.00,VWS V14.00,2013-02-09 15:11:00,
2013-02-09 10:16:00,14.1,12.0,30.43,SSE,163,2.0,3.0,91,0.00,,,0.00,VWS V14.00,2013-02-09 15:16:00,
2013-02-09 10:21:00,14.9,12.8,30.43,SSE,168,2.0,3.0,91,0.00,,,0.00,VWS V14.00,2013-02-09 15:21:00,
2013-02-09 10:26:00,15.5,13.4,30.44,South,171,2.0,4.0,91,0.00,,,0.00,VWS V14.00,2013-02-09 15:26:00,
2013-02-09 10:30:00,15.8,13.6,30.44,South,171,1.0,4.0,91,0.00,,FEW220,0.00,VWS V14.00,2013-02-09 15:30:00,
2013-02-09 10:31:00,15.9,13.7,30.44,South,171,2.0,4.0,91,0.00,,,0.00,VWS V14.00,2013-02-09 15:31:00,
2013-02-09 10:36:00,16.6,14.2,30.44,South,171,1.0,4.0,90,0.00,,,0.00,VWS V14.00,2013-02-09 15:36:00,
2013-02-09 10:41:00,17.1,14.7,30.44,South,175,2.0,5.0,90,0.00,,,0.00,VWS V14.00,2013-02-09 15:41:00,
2013-02-09 10:46:00,17.4,14.7,30.44,South,175,3.0,5.0,89,0.00,,,0.00,VWS V14.00,2013-02-09 15:46:00,
2013-02-09 10:51:00,18.2,15.5,30.43,SSE,168,3.0,5.0,89,0.00,,,0.00,VWS V14.00,2013-02-09 15:51:00,
2013-02-09 10:56:00,18.7,15.7,30.44,South,171,2.0,5.0,88,0.00,,,0.00,VWS V14.00,2013-02-09 15:56:00,
2013-02-09 11:00:00,19.0,15.8,30.43,SSE,166,3.0,5.0,87,0.00,,FEW220,0.00,VWS V14.00,2013-02-09 16:00:00,
2013-02-09 11:01:00,19.1,15.9,30.43,South,171,2.0,5.0,87,0.00,,SCT220,0.00,VWS V14.00,2013-02-09 16:01:00,
2013-02-09 11:06:00,19.6,16.1,30.43,South,178,1.0,5.0,86,0.00,,SCT220,0.00,VWS V14.00,2013-02-09 16:06:00,
2013-02-09 11:11:00,19.8,16.0,30.43,SSW,195,5.0,6.0,85,0.00,,SCT220,0.00,VWS V14.00,2013-02-09 16:11:00,
2013-02-09 11:16:00,20.0,16.2,30.43,SSW,194,6.0,7.0,85,0.00,,SCT220,0.00,VWS V14.00,2013-02-09 16:16:00,
2013-02-09 11:21:00,20.4,16.4,30.43,South,188,3.0,7.0,84,0.00,,SCT220,0.00,VWS V14.00,2013-02-09 16:21:00,
2013-02-09 11:26:00,20.8,16.7,30.43,SSW,192,3.0,7.0,84,0.00,,SCT220,0.00,VWS V14.00,2013-02-09 16:26:00,
2013-02-09 11:30:00,21.1,16.8,30.43,SSW,194,4.0,7.0,83,0.00,,FEW220,0.00,VWS V14.00,2013-02-09 16:30:00,
2013-02-09 11:31:00,21.2,16.9,30.43,SSW,194,3.0,4.0,83,0.00,,SCT220,0.00,VWS V14.00,2013-02-09 16:31:00,
2013-02-09 11:37:00,21.2,16.6,30.43,South,189,3.0,7.0,82,0.00,,SCT220,0.00,VWS V14.00,2013-02-09 16:37:00,
2013-02-09 11:42:00,21.6,17.0,30.43,SSW,206,6.0,7.0,82,0.00,,SCT220,0.00,VWS V14.00,2013-02-09 16:42:00,
2013-02-09 11:47:00,21.9,17.0,30.43,SSW,192,2.0,7.0,81,0.00,,SCT220,0.00,VWS V14.00,2013-02-09 16:47:00,
2013-02-09 11:52:00,22.4,17.2,30.42,SSW,194,7.0,7.0,80,0.00,,SCT220,0.00,VWS V14.00,2013-02-09 16:52:00,
2013-02-09 11:57:00,22.6,17.4,30.42,SSE,161,2.0,8.0,80,0.00,,SCT220,0.00,VWS V14.00,2013-02-09 16:57:00,
2013-02-09 12:00:00,23.0,17.5,30.42,SSE,165,2.0,8.0,79,0.00,,FEW220,0.00,VWS V14.00,2013-02-09 17:00:00,
2013-02-09 12:02:00,23.2,17.7,30.42,South,169,5.0,5.0,79,0.00,,FEW220,0.00,VWS V14.00,2013-02-09 17:02:00,
2013-02-09 12:07:00,23.6,17.8,30.42,SSE,165,2.0,6.0,78,0.00,,FEW220,0.00,VWS V14.00,2013-02-09 17:07:00,
2013-02-09 12:12:00,24.0,17.9,30.41,South,173,4.0,6.0,77,0.00,,FEW220,0.00,VWS V14.00,2013-02-09 17:12:00,
2013-02-09 12:17:00,24.4,18.2,30.41,South,175,5.0,6.0,77,0.00,,FEW220,0.00,VWS V14.00,2013-02-09 17:17:00,
2013-02-09 12:22:00,24.8,18.3,30.40,SSW,211,5.0,6.0,76,0.00,,FEW220,0.00,VWS V14.00,2013-02-09 17:22:00,
2013-02-09 12:27:00,24.9,18.4,30.40,SSW,195,5.0,8.0,76,0.00,,FEW220,0.00,VWS V14.00,2013-02-09 17:27:00,
2013-02-09 12:30:00,24.9,18.1,30.40,SSW,201,6.0,8.0,75,0.00,,FEW220,0.00,VWS V14.00,2013-02-09 17:30:00,
2013-02-09 12:32:00,25.0,18.2,30.40,SSE,161,5.0,6.0,75,0.00,,FEW220,0.00,VWS V14.00,2013-02-09 17:32:00,
2013-02-09 12:37:00,25.3,18.5,30.40,SSE,159,5.0,6.0,75,0.00,,FEW220,0.00,VWS V14.00,2013-02-09 17:37:00,
2013-02-09 12:42:00,25.8,18.7,30.39,SSE,166,4.0,7.0,74,0.00,,FEW220,0.00,VWS V14.00,2013-02-09 17:42:00,
2013-02-09 12:47:00,26.0,18.5,30.39,SSW,192,5.0,7.0,73,0.00,,FEW220,0.00,VWS V14.00,2013-02-09 17:47:00,
2013-02-09 12:53:00,26.2,19.1,30.38,South,172,4.0,7.0,74,0.00,,FEW220,0.00,VWS V14.00,2013-02-09 17:53:00,
2013-02-09 12:58:00,26.4,18.9,30.38,South,173,4.0,7.0,73,0.00,,FEW220,0.00,VWS V14.00,2013-02-09 17:58:00,
2013-02-09 13:00:00,26.7,19.2,30.38,South,186,2.0,7.0,73,0.00,,FEW220,0.00,VWS V14.00,2013-02-09 18:00:00,
2013-02-09 13:03:00,27.0,19.5,30.38,SSE,165,4.0,6.0,73,0.00,,FEW220,0.00,VWS V14.00,2013-02-09 18:03:00,
2013-02-09 13:08:00,27.2,19.7,30.38,South,178,3.0,6.0,73,0.00,,FEW220,0.00,VWS V14.00,2013-02-09 18:08:00,
2013-02-09 13:23:00,27.5,19.7,30.37,SSW,200,5.0,6.0,72,0.00,,,0.00,VWS V14.00,2013-02-09 18:23:00,
2013-02-09 13:28:00,27.9,20.1,30.36,SSE,164,4.0,8.0,72,0.00,,,0.00,VWS V14.00,2013-02-09 18:28:00,
2013-02-09 13:30:00,28.4,20.2,30.36,SSW,201,5.0,8.0,71,0.00,,,0.00,VWS V14.00,2013-02-09 18:30:00,
2013-02-09 13:34:00,28.1,20.2,30.36,South,184,2.0,8.0,72,0.00,,FEW220,0.00,VWS V14.00,2013-02-09 18:34:00,
2013-02-09 13:38:00,28.4,20.2,30.36,South,187,6.0,8.0,71,0.00,,FEW220,0.00,VWS V14.00,2013-02-09 18:38:00,
2013-02-09 13:43:00,28.6,20.4,30.35,SSW,198,5.0,6.0,71,0.00,,FEW220,0.00,VWS V14.00,2013-02-09 18:43:00,
2013-02-09 13:48:00,28.4,19.9,30.35,SSW,192,3.0,9.0,70,0.00,,FEW220,0.00,VWS V14.00,2013-02-09 18:48:00,
2013-02-09 13:54:00,28.8,20.6,30.35,South,183,5.0,9.0,71,0.00,,FEW220,0.00,VWS V14.00,2013-02-09 18:54:00,
2013-02-09 13:59:00,28.9,20.4,30.35,SSW,196,5.0,9.0,70,0.00,,FEW220,0.00,VWS V14.00,2013-02-09 18:59:00,
2013-02-09 14:00:00,29.0,20.5,30.35,South,169,3.0,9.0,70,0.00,,,0.00,VWS V14.00,2013-02-09 19:00:00,
2013-02-09 14:04:00,28.8,20.3,30.35,South,188,5.0,9.0,70,0.00,,FEW220,0.00,VWS V14.00,2013-02-09 19:04:00,
2013-02-09 14:09:00,29.0,20.5,30.35,South,169,2.0,9.0,70,0.00,,FEW220,0.00,VWS V14.00,2013-02-09 19:09:00,
2013-02-09 14:14:00,29.5,20.9,30.34,South,184,1.0,6.0,70,0.00,,FEW220,0.00,VWS V14.00,2013-02-09 19:14:00,
2013-02-09 14:19:00,29.7,20.8,30.34,South,175,3.0,8.0,69,0.00,,FEW220,0.00,VWS V14.00,2013-02-09 19:19:00,
2013-02-09 14:24:00,29.8,20.5,30.34,SSW,198,7.0,8.0,68,0.00,,FEW220,0.00,VWS V14.00,2013-02-09 19:24:00,
2013-02-09 14:29:00,29.7,20.5,30.33,SSE,159,3.0,8.0,68,0.00,,FEW220,0.00,VWS V14.00,2013-02-09 19:29:00,
2013-02-09 14:30:00,30.5,21.2,30.33,SSE,165,5.0,8.0,68,0.00,,,0.00,VWS V14.00,2013-02-09 19:30:00,
2013-02-09 14:34:00,30.0,20.7,30.33,SSE,153,0.0,8.0,68,0.00,,FEW220,0.00,VWS V14.00,2013-02-09 19:34:00,
2013-02-09 14:39:00,30.5,21.2,30.33,SSE,159,4.0,5.0,68,0.00,,FEW220,0.00,VWS V14.00,2013-02-09 19:39:00,
2013-02-09 14:44:00,30.3,21.0,30.33,SSE,156,3.0,9.0,68,0.00,,FEW220,0.00,VWS V14.00,2013-02-09 19:44:00,
2013-02-09 14:49:00,30.6,21.3,30.33,South,186,3.0,9.0,68,0.00,,FEW220,0.00,VWS V14.00,2013-02-09 19:49:00,
2013-02-09 14:54:00,30.3,20.7,30.33,SSW,198,6.0,10.0,67,0.00,,FEW220,0.00,VWS V14.00,2013-02-09 19:54:00,
2013-02-09 14:59:00,30.6,21.0,30.32,South,190,6.0,10.0,67,0.00,,FEW220,0.00,VWS V14.00,2013-02-09 19:59:00,
2013-02-09 15:00:00,30.7,21.1,30.32,South,169,2.0,10.0,67,0.00,,,0.00,VWS V14.00,2013-02-09 20:00:00,
2013-02-09 15:04:00,30.6,21.0,30.32,SSE,165,4.0,10.0,67,0.00,,FEW220,0.00,VWS V14.00,2013-02-09 20:04:00,
2013-02-09 15:09:00,30.7,21.1,30.32,South,169,1.0,3.0,67,0.00,,FEW220,0.00,VWS V14.00,2013-02-09 20:09:00,
2013-02-09 15:14:00,30.8,20.8,30.32,SSE,167,2.0,6.0,66,0.00,,FEW220,0.00,VWS V14.00,2013-02-09 20:14:00,
2013-02-09 15:20:00,30.9,23.0,30.32,SSE,148,4.0,6.0,72,0.00,,FEW220,0.00,VWS V14.00,2013-02-09 20:20:00,
2013-02-09 15:25:00,31.0,21.0,30.31,South,178,4.0,7.0,66,0.00,,FEW220,0.00,VWS V14.00,2013-02-09 20:25:00,
2013-02-09 15:30:00,31.1,21.1,30.31,South,180,4.0,7.0,66,0.00,,FEW220,0.00,VWS V14.00,2013-02-09 20:30:00,
2013-02-09 15:35:00,31.0,21.0,30.31,South,178,5.0,7.0,66,0.00,,FEW220,0.00,VWS V14.00,2013-02-09 20:35:00,
2013-02-09 15:40:00,31.1,21.1,30.31,SSE,161,6.0,10.0,66,0.00,,FEW220,0.00,VWS V14.00,2013-02-09 20:40:00,
2013-02-09 15:45:00,31.1,21.1,30.31,South,190,5.0,10.0,66,0.00,,FEW220,0.00,VWS V14.00,2013-02-09 20:45:00,
2013-02-09 15:59:00,31.4,21.4,30.31,South,175,6.0,6.0,66,0.00,,,0.00,VWS V14.00,2013-02-09 20:59:00,
2013-02-09 16:04:00,31.3,21.3,30.31,South,183,3.0,7.0,66,0.00,,,0.00,VWS V14.00,2013-02-09 21:04:00,
2013-02-09 16:09:00,31.4,21.4,30.31,South,180,3.0,9.0,66,0.00,,,0.00,VWS V14.00,2013-02-09 21:09:00,
2013-02-09 16:14:00,31.6,21.6,30.31,SE,142,0.0,8.0,66,0.00,,,0.00,VWS V14.00,2013-02-09 21:14:00,
2013-02-09 16:19:00,31.9,21.9,30.31,SSE,160,4.0,8.0,66,0.00,,,0.00,VWS V14.00,2013-02-09 21:19:00,
2013-02-09 16:24:00,31.7,21.3,30.31,South,186,5.0,8.0,65,0.00,,,0.00,VWS V14.00,2013-02-09 21:24:00,
2013-02-09 16:29:00,31.7,21.3,30.31,South,175,2.0,8.0,65,0.00,,,0.00,VWS V14.00,2013-02-09 21:29:00,
2013-02-09 16:34:00,31.6,21.6,30.30,South,184,4.0,8.0,66,0.00,,,0.00,VWS V14.00,2013-02-09 21:34:00,
2013-02-09 16:39:00,31.4,21.4,30.31,South,184,4.0,10.0,66,0.00,,,0.00,VWS V14.00,2013-02-09 21:39:00,
2013-02-09 16:44:00,31.5,21.5,30.31,SE,141,4.0,10.0,66,0.00,,,0.00,VWS V14.00,2013-02-09 21:44:00,
2013-02-09 16:49:00,31.5,21.5,30.30,SSE,160,3.0,10.0,66,0.00,,,0.00,VWS V14.00,2013-02-09 21:49:00,
2013-02-09 16:54:00,31.3,21.3,30.30,South,178,3.0,10.0,66,0.00,,,0.00,VWS V14.00,2013-02-09 21:54:00,
2013-02-09 16:59:00,31.1,21.1,30.30,South,178,2.0,10.0,66,0.00,,,0.00,VWS V14.00,2013-02-09 21:59:00,
2013-02-09 17:04:00,31.0,21.0,30.30,South,180,2.0,7.0,66,0.00,,FEW220,0.00,VWS V14.00,2013-02-09 22:04:00,
2013-02-09 17:10:00,31.0,21.0,30.29,SSE,163,6.0,9.0,66,0.00,,FEW220,0.00,VWS V14.00,2013-02-09 22:10:00,
2013-02-09 17:15:00,30.9,21.2,30.29,SSE,159,5.0,9.0,67,0.00,,FEW220,0.00,VWS V14.00,2013-02-09 22:15:00,
2013-02-09 17:20:00,30.8,21.1,30.29,South,180,0.0,9.0,67,0.00,,FEW220,0.00,VWS V14.00,2013-02-09 22:20:00,
2013-02-09 17:25:00,30.5,20.9,30.29,SSE,161,2.0,9.0,67,0.00,,FEW220,0.00,VWS V14.00,2013-02-09 22:25:00,
2013-02-09 17:30:00,30.2,20.9,30.29,SSE,161,1.0,9.0,68,0.00,,FEW220,0.00,VWS V14.00,2013-02-09 22:30:00,
2013-02-09 17:35:00,30.0,20.7,30.28,SSE,167,3.0,5.0,68,0.00,,FEW220,0.00,VWS V14.00,2013-02-09 22:35:00,
2013-02-09 17:40:00,29.9,20.6,30.29,SSE,162,3.0,8.0,68,0.00,,FEW220,0.00,VWS V14.00,2013-02-09 22:40:00,
2013-02-09 17:45:00,29.9,20.6,30.28,SSE,166,0.0,8.0,68,0.00,,FEW220,0.00,VWS V14.00,2013-02-09 22:45:00,
2013-02-09 17:50:00,29.6,20.7,30.28,SSE,165,0.0,8.0,69,0.00,,FEW220,0.00,VWS V14.00,2013-02-09 22:50:00,
2013-02-09 17:55:00,29.4,20.8,30.28,SSE,147,1.0,8.0,70,0.00,,FEW220,0.00,VWS V14.00,2013-02-09 22:55:00,
2013-02-09 18:00:00,29.2,20.6,30.28,SE,146,2.0,2.0,70,0.00,,FEW220,0.00,VWS V14.00,2013-02-09 23:00:00,
2013-02-09 18:05:00,28.8,20.3,30.28,SSE,148,0.0,3.0,70,0.00,,FEW220,0.00,VWS V14.00,2013-02-09 23:05:00,
2013-02-09 18:10:00,28.5,20.3,30.28,SSE,148,0.0,3.0,71,0.00,,FEW220,0.00,VWS V14.00,2013-02-09 23:10:00,
2013-02-09 18:15:00,28.3,20.1,30.28,SSE,148,0.0,3.0,71,0.00,,FEW220,0.00,VWS V14.00,2013-02-09 23:15:00,
2013-02-09 18:20:00,28.0,19.8,30.28,SSE,148,1.0,3.0,71,0.00,,FEW220,0.00,VWS V14.00,2013-02-09 23:20:00,
2013-02-09 18:25:00,27.8,20.0,30.28,SSE,148,1.0,3.0,72,0.00,,FEW220,0.00,VWS V14.00,2013-02-09 23:25:00,
2013-02-09 18:30:00,27.6,19.8,30.28,SSE,149,2.0,3.0,72,0.00,,FEW220,0.00,VWS V14.00,2013-02-09 23:30:00,
2013-02-09 18:35:00,27.4,19.9,30.28,SSE,149,0.0,3.0,73,0.00,,FEW220,0.00,VWS V14.00,2013-02-09 23:35:00,
2013-02-09 18:41:00,27.2,19.7,30.28,SSE,149,0.0,3.0,73,0.00,,FEW220,0.00,VWS V14.00,2013-02-09 23:41:00,
2013-02-09 18:46:00,27.0,19.5,30.28,SSE,149,0.0,3.0,73,0.00,,FEW220,0.00,VWS V14.00,2013-02-09 23:46:00,
2013-02-09 18:51:00,26.7,19.5,30.27,SSE,149,0.0,3.0,74,0.00,,FEW220,0.00,VWS V14.00,2013-02-09 23:51:00,
2013-02-09 18:56:00,26.5,19.4,30.27,SSE,149,0.0,3.0,74,0.00,,FEW220,0.00,VWS V14.00,2013-02-09 23:56:00,
2013-02-09 19:01:00,26.3,19.5,30.27,SSE,149,2.0,2.0,75,0.00,,FEW220,0.00,VWS V14.00,2013-02-10 00:01:00,
2013-02-09 19:06:00,26.2,19.4,30.27,SSE,149,1.0,2.0,75,0.00,,FEW220,0.00,VWS V14.00,2013-02-10 00:06:00,
2013-02-09 19:11:00,26.2,19.4,30.27,SSE,149,0.0,2.0,75,0.00,,FEW220,0.00,VWS V14.00,2013-02-10 00:11:00,
2013-02-09 19:16:00,26.1,19.6,30.27,SSE,148,0.0,2.0,76,0.00,,FEW220,0.00,VWS V14.00,2013-02-10 00:16:00,
2013-02-09 19:21:00,26.2,19.4,30.27,SSE,147,0.0,3.0,75,0.00,,FEW220,0.00,VWS V14.00,2013-02-10 00:21:00,
2013-02-09 19:26:00,26.2,19.4,30.27,SSE,147,0.0,3.0,75,0.00,,FEW220,0.00,VWS V14.00,2013-02-10 00:26:00,
2013-02-09 19:31:00,26.1,19.3,30.27,SE,146,0.0,0.0,75,0.00,,FEW220,0.00,VWS V14.00,2013-02-10 00:31:00,
2013-02-09 19:36:00,25.8,19.0,30.27,SSE,147,1.0,1.0,75,0.00,,FEW220,0.00,VWS V14.00,2013-02-10 00:36:00,
2013-02-09 19:41:00,25.6,19.1,30.27,SE,146,0.0,1.0,76,0.00,,FEW220,0.00,VWS V14.00,2013-02-10 00:41:00,
2013-02-09 19:46:00,25.4,18.9,30.27,SSE,147,0.0,1.0,76,0.00,,FEW220,0.00,VWS V14.00,2013-02-10 00:46:00,
2013-02-09 19:51:00,25.2,18.7,30.27,SSE,147,0.0,1.0,76,0.00,,FEW220,0.00,VWS V14.00,2013-02-10 00:51:00,
2013-02-09 19:56:00,25.0,18.8,30.27,SE,146,0.0,2.0,77,0.00,,FEW220,0.00,VWS V14.00,2013-02-10 00:56:00,
2013-02-09 20:01:00,25.1,18.9,30.27,SE,146,0.0,0.0,77,0.00,,FEW150,0.00,VWS V14.00,2013-02-10 01:01:00,
2013-02-09 20:06:00,24.9,18.7,30.27,SE,146,0.0,0.0,77,0.00,,FEW150,0.00,VWS V14.00,2013-02-10 01:06:00,
2013-02-09 20:11:00,24.8,18.6,30.27,SE,146,0.0,2.0,77,0.00,,FEW150,0.00,VWS V14.00,2013-02-10 01:11:00,
2013-02-09 20:16:00,24.6,18.7,30.27,SE,146,0.0,2.0,78,0.00,,FEW150,0.00,VWS V14.00,2013-02-10 01:16:00,
2013-02-09 20:21:00,24.5,18.6,30.27,SE,146,0.0,2.0,78,0.00,,FEW150,0.00,VWS V14.00,2013-02-10 01:21:00,
2013-02-09 20:26:00,24.3,18.4,30.27,SE,146,0.0,2.0,78,0.00,,FEW150,0.00,VWS V14.00,2013-02-10 01:26:00,
2013-02-09 20:31:00,24.1,18.2,30.27,SE,146,0.0,0.0,78,0.00,,FEW150,0.00,VWS V14.00,2013-02-10 01:31:00,
2013-02-09 20:36:00,23.8,18.0,30.27,SE,146,0.0,0.0,78,0.00,,FEW150,0.00,VWS V14.00,2013-02-10 01:36:00,
2013-02-09 20:41:00,23.5,18.0,30.27,SE,146,0.0,0.0,79,0.00,,FEW150,0.00,VWS V14.00,2013-02-10 01:41:00,
2013-02-09 20:46:00,23.4,17.9,30.27,SE,146,0.0,1.0,79,0.00,,FEW150,0.00,VWS V14.00,2013-02-10 01:46:00,
2013-02-09 20:52:00,23.4,18.1,30.26,SE,146,0.0,2.0,80,0.00,,FEW150,0.00,VWS V14.00,2013-02-10 01:52:00,
2013-02-09 20:57:00,23.4,18.1,30.26,SE,146,0.0,2.0,80,0.00,,FEW150,0.00,VWS V14.00,2013-02-10 01:57:00,
2013-02-09 21:02:00,23.3,18.1,30.26,SE,146,0.0,0.0,80,0.00,,SCT150,0.00,VWS V14.00,2013-02-10 02:02:00,
2013-02-09 21:07:00,23.1,17.9,30.26,SE,146,0.0,0.0,80,0.00,,SCT150,0.00,VWS V14.00,2013-02-10 02:07:00,
2013-02-09 21:12:00,23.1,17.9,30.26,SE,146,0.0,2.0,80,0.00,,SCT150,0.00,VWS V14.00,2013-02-10 02:12:00,
2013-02-09 21:17:00,23.2,18.2,30.26,SE,146,0.0,2.0,81,0.00,,SCT150,0.00,VWS V14.00,2013-02-10 02:17:00,
2013-02-09 21:22:00,23.2,18.0,30.26,SE,146,0.0,2.0,80,0.00,,SCT150,0.00,VWS V14.00,2013-02-10 02:22:00,
2013-02-09 21:27:00,23.0,17.8,30.26,SE,146,0.0,2.0,80,0.00,,SCT150,0.00,VWS V14.00,2013-02-10 02:27:00,
2013-02-09 21:32:00,22.8,17.9,30.26,SE,146,0.0,0.0,81,0.00,,SCT150,0.00,VWS V14.00,2013-02-10 02:32:00,
2013-02-09 21:37:00,22.7,17.8,30.26,SE,146,0.0,0.0,81,0.00,,SCT150,0.00,VWS V14.00,2013-02-10 02:37:00,
2013-02-09 21:42:00,22.6,17.7,30.26,SE,146,0.0,0.0,81,0.00,,SCT150,0.00,VWS V14.00,2013-02-10 02:42:00,
2013-02-09 21:47:00,22.6,17.7,30.25,SE,146,0.0,2.0,81,0.00,,SCT150,0.00,VWS V14.00,2013-02-10 02:47:00,
2013-02-09 21:52:00,22.5,17.6,30.25,SE,146,0.0,2.0,81,0.00,,SCT150,0.00,VWS V14.00,2013-02-10 02:52:00,
2013-02-09 21:57:00,22.4,17.5,30.25,SE,146,0.0,2.0,81,0.00,,SCT150,0.00,VWS V14.00,2013-02-10 02:57:00,
2013-02-09 22:02:00,22.3,17.4,30.25,SE,146,0.0,2.0,81,0.00,,SCT150,0.00,VWS V14.00,2013-02-10 03:02:00,
2013-02-09 22:07:00,22.1,17.5,30.25,SE,146,0.0,2.0,82,0.00,,SCT150,0.00,VWS V14.00,2013-02-10 03:07:00,
2013-02-09 22:13:00,22.0,17.4,30.25,SE,146,0.0,2.0,82,0.00,,SCT150,0.00,VWS V14.00,2013-02-10 03:13:00,
2013-02-09 22:18:00,21.8,17.2,30.25,SE,146,0.0,2.0,82,0.00,,SCT150,0.00,VWS V14.00,2013-02-10 03:18:00,
2013-02-09 22:23:00,21.6,17.0,30.25,SE,146,0.0,2.0,82,0.00,,SCT150,0.00,VWS V14.00,2013-02-10 03:23:00,
2013-02-09 22:28:00,21.5,17.1,30.25,SE,146,0.0,2.0,83,0.00,,SCT150,0.00,VWS V14.00,2013-02-10 03:28:00,
2013-02-09 22:33:00,21.4,17.0,30.25,SE,146,0.0,0.0,83,0.00,,SCT150,0.00,VWS V14.00,2013-02-10 03:33:00,
2013-02-09 22:38:00,21.2,16.9,30.25,SE,146,0.0,0.0,83,0.00,,SCT150,0.00,VWS V14.00,2013-02-10 03:38:00,
2013-02-09 22:43:00,21.1,16.8,30.25,SE,146,0.0,0.0,83,0.00,,SCT150,0.00,VWS V14.00,2013-02-10 03:43:00,
2013-02-09 22:48:00,21.0,16.9,30.25,SE,146,0.0,1.0,84,0.00,,SCT150,0.00,VWS V14.00,2013-02-10 03:48:00,
2013-02-09 22:53:00,20.9,16.8,30.24,SE,146,0.0,1.0,84,0.00,,SCT150,0.00,VWS V14.00,2013-02-10 03:53:00,
2013-02-09 22:58:00,20.9,16.8,30.24,SE,146,0.0,1.0,84,0.00,,SCT150,0.00,VWS V14.00,2013-02-10 03:58:00,
2013-02-09 23:03:00,20.7,16.6,30.24,SE,146,0.0,0.0,84,0.00,,SCT150,0.00,VWS V14.00,2013-02-10 04:03:00,
2013-02-09 23:08:00,20.7,16.6,30.24,SE,146,0.0,2.0,84,0.00,,SCT150,0.00,VWS V14.00,2013-02-10 04:08:00,
2013-02-09 23:13:00,20.7,16.6,30.24,SE,146,0.0,2.0,84,0.00,,SCT150,0.00,VWS V14.00,2013-02-10 04:13:00,
2013-02-09 23:18:00,20.6,16.8,30.24,SE,146,0.0,2.0,85,0.00,,SCT150,0.00,VWS V14.00,2013-02-10 04:18:00,
2013-02-09 23:23:00,20.6,16.8,30.24,SE,146,0.0,2.0,85,0.00,,SCT150,0.00,VWS V14.00,2013-02-10 04:23:00,
2013-02-09 23:29:00,20.6,16.8,30.23,SE,146,0.0,2.0,85,0.00,,SCT150,0.00,VWS V14.00,2013-02-10 04:29:00,
2013-02-09 23:34:00,20.7,16.9,30.23,SE,146,0.0,1.0,85,0.00,,SCT150,0.00,VWS V14.00,2013-02-10 04:34:00,
2013-02-09 23:39:00,20.6,16.8,30.23,SE,146,0.0,2.0,85,0.00,,SCT150,0.00,VWS V14.00,2013-02-10 04:39:00,
2013-02-09 23:44:00,20.5,16.7,30.23,SE,146,0.0,2.0,85,0.00,,SCT150,0.00,VWS V14.00,2013-02-10 04:44:00,
2013-02-09 23:49:00,20.3,16.5,30.23,SE,146,0.0,2.0,85,0.00,,SCT150,0.00,VWS V14.00,2013-02-10 04:49:00,
2013-02-09 23:54:00,20.2,16.4,30.22,SE,146,0.0,2.0,85,0.00,,SCT150,0.00,VWS V14.00,2013-02-10 04:54:00,
2013-02-09 23:59:00,20.2,16.7,30.22,SE,146,1.0,2.0,86,0.00,,SCT150,0.00,VWS V14.00,2013-02-10 04:59:00,